Time;durP1;ratioP1;P1;durP2;ratioP2;P2;SDS_P1;SDS_P2;PMS_P1;PMS_P2;Temp;Humidity;BMP_temperature;BMP_pressure;BME280_temperature;BME280_humidity;BME280_pressure;Samples;Min_cycle;Max_cycle;Signal;HPM_P1;HPM_P2
2022/01/13 00:03:15;;;;;;;31.73;18.25;;;;;;;-1.41;54.08;101799.34;7709441;32;40003;-72
2022/01/13 00:07:31;;;;;;;33.33;17.80;;;;;;;-1.64;54.83;101807.66;7710442;32;38824;-75
2022/01/13 00:11:49;;;;;;;36.92;18.23;;;;;;;-1.64;54.95;101794.28;7710621;32;37224;-72
2022/01/13 00:16:37;;;;;;;34.80;18.52;;;;;;;-1.48;54.34;101792.84;7710237;32;39354;-72
2022/01/13 00:25:13;;;;;;;37.33;18.23;;;;;;;-1.57;53.68;101792.75;7709951;32;38039;-72
2022/01/13 00:29:31;;;;;;;35.38;18.70;;;;;;;-1.31;52.94;101789.47;7710125;32;37969;-71
2022/01/13 00:33:50;;;;;;;35.08;17.98;;;;;;;-1.54;53.17;101807.66;7709666;32;40173;-74
2022/01/13 00:38:06;;;;;;;31.40;16.85;;;;;;;-1.26;52.23;101805.94;7709872;32;40050;-74
2022/01/13 00:42:23;;;;;;;33.47;17.10;;;;;;;-1.45;52.59;101804.16;7709580;32;37911;-74
2022/01/13 00:46:42;;;;;;;35.20;18.00;;;;;;;-1.49;52.77;101807.25;7709590;32;38026;-73
2022/01/13 00:50:59;;;;;;;31.90;17.55;;;;;;;-1.40;51.93;101809.03;7709583;32;40095;-73
2022/01/13 00:55:20;;;;;;;33.17;17.87;;;;;;;-1.51;52.23;101805.53;7709350;32;39878;-73
2022/01/13 00:59:36;;;;;;;33.83;17.45;;;;;;;-1.90;53.41;101800.25;7709157;32;38657;-74
2022/01/13 01:03:52;;;;;;;38.72;19.10;;;;;;;-1.57;52.05;101803.44;7709078;32;37394;-74
2022/01/13 01:08:10;;;;;;;38.50;17.62;;;;;;;-2.01;53.18;101815.56;7709035;32;40024;-73
2022/01/13 01:12:32;;;;;;;37.08;17.95;;;;;;;-1.58;51.89;101812.44;7709558;32;40922;-73
2022/01/13 01:16:48;;;;;;;37.65;17.30;;;;;;;-1.45;51.01;101808.62;7712809;32;37837;-73
2022/01/13 01:29:53;;;;;;;40.80;18.70;;;;;;;-1.66;51.58;101819.50;7712624;32;40774;-73
2022/01/13 01:38:37;;;;;;;36.85;19.25;;;;;;;-1.74;52.46;101817.53;7712617;32;37154;-73
2022/01/13 01:42:53;;;;;;;36.20;17.92;;;;;;;-2.08;53.12;101820.63;7712423;32;39466;-72
2022/01/13 01:47:13;;;;;;;36.33;18.65;;;;;;;-1.84;52.34;101822.06;7712342;32;40778;-73
2022/01/13 01:51:29;;;;;;;36.67;17.58;;;;;;;-2.00;52.79;101825.25;7712298;32;37834;-73
2022/01/13 01:55:45;;;;;;;35.42;17.77;;;;;;;-2.19;53.43;101852.81;7712326;32;37401;-73
2022/01/13 02:00:02;;;;;;;34.00;17.95;;;;;;;-1.99;52.66;101840.31;7712229;32;40011;-73
2022/01/13 02:04:20;;;;;;;34.45;17.27;;;;;;;-2.44;54.50;101830.94;7712067;32;39949;-72
2022/01/13 02:08:36;;;;;;;38.35;19.02;;;;;;;-2.19;53.65;101831.41;7712085;32;38485;-73
2022/01/13 02:13:01;;;;;;;37.85;19.48;;;;;;;-2.26;54.05;101833.78;7712046;32;37880;-73
2022/01/13 02:17:26;;;;;;;37.35;18.33;;;;;;;-2.14;53.59;101826.50;7712145;32;39201;-73
2022/01/13 02:21:42;;;;;;;33.75;17.30;;;;;;;-2.48;54.46;101825.03;7711895;32;39808;-73
2022/01/13 02:26:00;;;;;;;38.50;19.20;;;;;;;-2.52;55.29;101818.28;7711092;32;37934;-73
2022/01/13 02:30:16;;;;;;;33.60;19.85;;;;;;;-2.34;54.46;101815.78;7711794;32;38227;-73
2022/01/13 02:34:33;;;;;;;35.88;17.83;;;;;;;-2.54;55.27;101814.06;7711744;32;39914;-73
2022/01/13 02:38:51;;;;;;;37.05;18.98;;;;;;;-2.19;54.06;101802.03;7711723;32;40012;-74
2022/01/13 02:43:07;;;;;;;38.88;18.87;;;;;;;-2.34;54.67;101791.75;7711681;32;38171;-72
2022/01/13 02:47:36;;;;;;;37.42;18.35;;;;;;;-2.12;53.86;101784.44;7711605;32;37991;-73
2022/01/13 02:51:55;;;;;;;31.55;17.55;;;;;;;-2.23;53.85;101788.09;7711633;32;40101;-73
2022/01/13 02:56:11;;;;;;;32.50;18.27;;;;;;;-2.01;52.87;101810.22;7711592;32;39927;-73
2022/01/13 03:00:27;;;;;;;41.37;18.15;;;;;;;-2.40;53.94;101829.69;7711429;32;38672;-74
2022/01/13 03:04:47;;;;;;;41.92;18.45;;;;;;;-2.51;54.30;101848.50;7711833;32;37188;-74
2022/01/13 03:09:06;;;;;;;42.30;19.12;;;;;;;-2.39;54.23;101826.03;7711421;32;39314;-73
2022/01/13 03:13:23;;;;;;;36.05;19.67;;;;;;;-2.47;54.72;101825.88;7711453;32;40223;-71
2022/01/13 03:17:39;;;;;;;41.75;19.45;;;;;;;-2.51;55.41;101844.00;7711279;32;37911;-74
2022/01/13 03:21:55;;;;;;;39.25;18.80;;;;;;;-2.59;56.08;101859.03;7711199;32;37427;-73
2022/01/13 03:26:12;;;;;;;36.38;18.92;;;;;;;-2.51;56.26;101854.69;7711249;32;40055;-73
2022/01/13 03:30:28;;;;;;;37.75;20.20;;;;;;;-2.60;56.84;101868.00;7711275;32;39772;-73
2022/01/13 03:34:44;;;;;;;39.70;19.77;;;;;;;-2.37;55.94;101848.13;7710906;32;37696;-73
2022/01/13 03:39:00;;;;;;;38.30;19.20;;;;;;;-2.24;55.75;101826.50;7711134;32;37154;-73
2022/01/13 03:43:17;;;;;;;34.65;19.02;;;;;;;-2.30;55.92;101833.22;7710992;32;39910;-73
2022/01/13 03:47:33;;;;;;;33.10;17.75;;;;;;;-2.29;55.48;101840.28;7710808;32;39944;-73
2022/01/13 03:51:58;;;;;;;36.58;18.73;;;;;;;-2.01;54.87;101835.12;7696982;32;38847;-73
2022/01/13 03:56:38;;;;;;;38.33;18.55;;;;;;;-2.28;56.10;101825.94;7710987;32;38278;-73
2022/01/13 04:01:18;;;;;;;34.63;17.70;;;;;;;-2.38;56.73;101846.44;7710836;32;39070;-73
2022/01/13 04:05:56;;;;;;;35.03;18.52;;;;;;;-2.39;56.59;101844.75;7710510;32;40019;-73
2022/01/13 04:10:54;;;;;;;45.03;19.42;;;;;;;-2.20;57.00;101800.34;7710395;32;41017;-73
2022/01/13 04:15:14;;;;;;;42.45;19.20;;;;;;;-2.24;57.03;101789.09;7688443;32;37154;-72
2022/01/13 04:19:30;;;;;;;37.22;18.25;;;;;;;-1.84;55.01;101785.44;7710360;32;39939;-72
2022/01/13 04:23:47;;;;;;;41.22;17.80;;;;;;;-1.75;54.47;101771.22;7710120;32;40832;-73
2022/01/13 04:28:04;;;;;;;37.10;19.42;;;;;;;-1.78;54.28;101778.69;7696363;32;38735;-72
2022/01/13 04:32:20;;;;;;;42.67;18.55;;;;;;;-1.91;54.54;101766.44;7709843;32;37216;-73
2022/01/13 04:36:36;;;;;;;37.20;17.42;;;;;;;-1.70;53.78;101768.13;7709876;32;39909;-72
2022/01/13 04:40:56;;;;;;;37.17;18.37;;;;;;;-1.60;53.34;101770.78;7709788;32;39638;-72
2022/01/13 04:45:12;;;;;;;35.55;18.40;;;;;;;-1.82;54.15;101778.12;7709568;32;38719;-73
2022/01/13 04:49:28;;;;;;;39.13;18.27;;;;;;;-1.81;54.28;101789.66;7711917;32;37175;-73
2022/01/13 04:53:45;;;;;;;37.35;19.23;;;;;;;-2.30;55.92;101803.00;7713029;32;40095;-73
2022/01/13 04:58:01;;;;;;;43.92;19.30;;;;;;;-2.52;57.12;101814.75;7712962;32;40040;-73
2022/01/13 05:02:18;;;;;;;37.05;18.05;;;;;;;-2.20;57.13;101811.03;7712826;32;39135;-72
2022/01/13 05:06:34;;;;;;;52.75;19.60;;;;;;;-2.16;56.86;101807.09;7713105;32;37078;-72
2022/01/13 05:10:50;;;;;;;41.63;20.30;;;;;;;-2.04;56.40;101822.03;7712822;32;40024;-73
2022/01/13 05:15:09;;;;;;;40.38;19.00;;;;;;;-2.07;56.36;101830.31;7712730;32;39913;-73
2022/01/13 05:19:32;;;;;;;42.33;19.62;;;;;;;-1.90;55.81;101835.00;7712668;32;37052;-73
2022/01/13 05:23:49;;;;;;;40.08;19.55;;;;;;;-2.18;57.33;101849.16;7712655;32;37389;-73
2022/01/13 05:28:05;;;;;;;39.60;19.15;;;;;;;-2.14;58.04;101863.91;7712672;32;40095;-72
2022/01/13 05:32:21;;;;;;;36.80;18.67;;;;;;;-2.20;57.33;101856.47;7711959;32;39941;-72
2022/01/13 05:36:37;;;;;;;44.08;20.35;;;;;;;-1.96;55.99;101854.25;7712374;32;39049;-72
2022/01/13 05:40:58;;;;;;;36.92;19.05;;;;;;;-2.06;55.63;101849.88;7698698;32;37265;-72
2022/01/13 05:45:16;;;;;;;43.17;19.65;;;;;;;-1.86;60.22;101834.69;7712430;32;39169;-73
2022/01/13 05:49:32;;;;;;;49.67;21.12;;;;;;;-1.82;58.39;101836.13;7712425;32;39988;-72
2022/01/13 05:53:48;;;;;;;41.25;20.88;;;;;;;-1.57;56.33;101830.19;7712268;32;37663;-72
2022/01/13 05:58:04;;;;;;;42.42;22.05;;;;;;;-2.01;55.96;101824.41;7712137;32;37166;-73
2022/01/13 06:02:20;;;;;;;45.45;21.55;;;;;;;-1.82;55.24;101820.06;7711368;32;40033;-73
2022/01/13 06:06:36;;;;;;;37.22;19.70;;;;;;;-2.00;56.08;101807.41;7712019;32;40060;-73
2022/01/13 06:10:53;;;;;;;38.47;20.00;;;;;;;-1.74;55.88;101801.50;7712050;32;38794;-73
2022/01/13 06:15:11;;;;;;;49.45;20.62;;;;;;;-1.96;55.91;101811.47;7711947;32;38053;-72
2022/01/13 06:19:27;;;;;;;43.60;19.58;;;;;;;-1.86;55.35;101813.28;7711970;32;39503;-72
2022/01/13 06:23:43;;;;;;;43.67;20.65;;;;;;;-2.00;57.44;101817.25;7711655;32;40672;-73
2022/01/13 06:27:59;;;;;;;47.53;19.87;;;;;;;-1.60;57.00;101813.59;7711732;32;37881;-73
2022/01/13 06:32:28;;;;;;;47.72;20.90;;;;;;;-1.55;56.43;101822.03;7711690;32;37000;-73
2022/01/13 06:36:44;;;;;;;42.90;19.73;;;;;;;-1.62;57.48;101823.56;7711863;32;39321;-73
2022/01/13 06:41:01;;;;;;;40.08;21.42;;;;;;;-1.49;57.01;101821.44;7711759;32;40725;-73
2022/01/13 06:45:17;;;;;;;47.45;21.52;;;;;;;-1.91;57.19;101833.28;7711444;32;37935;-73
2022/01/13 06:49:34;;;;;;;43.13;21.30;;;;;;;-2.08;57.59;101832.16;7711696;32;37432;-72
2022/01/13 06:53:50;;;;;;;47.95;20.23;;;;;;;-1.79;57.17;101830.50;7710717;32;39881;-73
2022/01/13 06:58:06;;;;;;;43.47;21.65;;;;;;;-1.66;56.45;101825.69;7711580;32;40512;-73
2022/01/13 07:02:23;;;;;;;42.20;20.83;;;;;;;-1.71;56.53;101833.28;7711503;32;38543;-73
2022/01/13 07:06:41;;;;;;;45.45;20.33;;;;;;;-1.61;56.71;101833.28;7711467;32;37940;-73
2022/01/13 07:10:59;;;;;;;52.78;22.33;;;;;;;-1.87;58.02;101835.69;7707671;32;39109;-72
2022/01/13 07:15:16;;;;;;;45.05;21.35;;;;;;;-1.54;57.62;101834.41;7708901;32;40828;-73
2022/01/13 07:19:32;;;;;;;48.25;22.17;;;;;;;-1.63;58.86;101851.31;7709186;32;38646;-72
2022/01/13 07:23:48;;;;;;;56.50;26.00;;;;;;;-1.68;59.19;101846.38;7710372;32;37688;-73
2022/01/13 07:28:05;;;;;;;48.10;22.10;;;;;;;-1.54;59.85;101847.78;7711484;32;40095;-73
2022/01/13 07:32:21;;;;;;;48.03;23.45;;;;;;;-1.43;60.05;101862.84;7711032;32;39783;-74
2022/01/13 07:36:39;;;;;;;52.55;23.10;;;;;;;-1.53;59.84;101873.56;7711159;32;37913;-74
2022/01/13 07:40:55;;;;;;;56.42;24.40;;;;;;;-1.40;59.37;101873.25;7711145;32;37198;-73
2022/01/13 07:45:12;;;;;;;54.20;23.70;;;;;;;-1.12;59.10;101876.91;7710898;32;39394;-73
2022/01/13 07:49:29;;;;;;;44.00;21.45;;;;;;;-1.00;58.98;101880.22;7710543;32;40781;-73
2022/01/13 07:53:46;;;;;;;48.65;21.75;;;;;;;-0.95;59.53;101886.88;7710681;32;38647;-72
2022/01/13 07:58:02;;;;;;;49.50;22.10;;;;;;;-0.40;58.87;101883.44;7710825;32;37316;-73
2022/01/13 08:02:18;;;;;;;49.38;22.65;;;;;;;-0.37;58.82;101879.59;7697022;32;39201;-71
2022/01/13 08:06:34;;;;;;;51.25;21.95;;;;;;;-0.35;59.21;101882.13;7710475;32;39964;-73
2022/01/13 08:10:51;;;;;;;54.15;24.65;;;;;;;0.08;57.91;101891.34;7710398;32;38001;-73
2022/01/13 08:15:12;;;;;;;49.70;24.40;;;;;;;0.34;57.30;101880.69;7710349;32;38259;-74
2022/01/13 08:19:48;;;;;;;53.17;25.35;;;;;;;0.42;56.79;101882.62;7696873;32;40031;-73
2022/01/13 08:24:05;;;;;;;47.35;23.05;;;;;;;0.60;56.67;101891.50;7708920;32;39997;-74
2022/01/13 08:28:21;;;;;;;53.92;23.45;;;;;;;0.79;56.23;101886.94;7709388;32;35857;-74
2022/01/13 08:32:37;;;;;;;50.97;23.67;;;;;;;0.83;56.63;101880.25;7708543;32;37170;-74
2022/01/13 08:36:53;;;;;;;59.30;25.37;;;;;;;1.21;55.75;101883.53;7709557;32;39480;-73
2022/01/13 08:41:09;;;;;;;60.95;25.85;;;;;;;0.71;57.28;101880.53;7709725;32;39957;-73
2022/01/13 08:45:25;;;;;;;57.15;25.62;;;;;;;0.91;56.31;101883.00;7709505;32;37886;-72
2022/01/13 08:49:41;;;;;;;42.70;20.98;;;;;;;0.93;56.30;101876.50;7709517;32;38062;-77
2022/01/13 08:53:57;;;;;;;52.67;23.75;;;;;;;1.00;59.04;101887.47;7708594;32;39570;-73
2022/01/13 08:58:14;;;;;;;52.85;23.85;;;;;;;1.44;56.28;101892.75;7709294;32;41283;-73
2022/01/13 09:02:33;;;;;;;46.03;22.83;;;;;;;1.48;55.96;101887.87;7708949;32;37947;-74
2022/01/13 09:06:49;;;;;;;48.17;23.87;;;;;;;1.28;56.50;101882.75;7708974;32;37240;-73
2022/01/13 09:11:05;;;;;;;49.28;25.20;;;;;;;0.61;58.82;101881.63;7709009;32;39305;-74
2022/01/13 09:15:39;;;;;;;51.92;25.52;;;;;;;1.02;59.02;101874.72;7708906;32;39884;-73
2022/01/13 09:19:55;;;;;;;57.80;27.17;;;;;;;1.45;58.15;101875.62;7708790;32;37897;-73
2022/01/13 09:24:15;;;;;;;41.35;18.17;;;;;;;1.48;59.16;101878.00;7708722;32;37245;-73
2022/01/13 09:28:31;;;;;;;42.45;20.70;;;;;;;1.15;59.05;101876.97;7708657;32;40103;-72
2022/01/13 09:32:51;;;;;;;45.03;21.85;;;;;;;0.65;61.28;101883.81;7707776;32;39988;-75
2022/01/13 09:37:07;;;;;;;44.42;20.48;;;;;;;1.13;60.34;101882.50;7712349;32;38682;-74
2022/01/13 09:41:24;;;;;;;48.85;19.73;;;;;;;1.12;60.52;101875.44;7712457;32;37619;-73
2022/01/13 09:45:41;;;;;;;37.53;19.05;;;;;;;0.54;62.71;101865.28;7698462;32;39427;-75
2022/01/13 09:50:00;;;;;;;43.42;19.90;;;;;;;0.24;63.99;101858.47;7711487;32;40016;-74
2022/01/13 09:54:20;;;;;;;46.78;20.10;;;;;;;0.51;64.27;101841.44;7711357;32;38065;-74
2022/01/13 09:58:38;;;;;;;40.10;19.73;;;;;;;0.67;63.32;101833.53;7709071;32;36948;-74
2022/01/13 10:02:54;;;;;;;35.30;17.25;;;;;;;0.83;63.47;101826.56;7707737;32;40590;-74
2022/01/13 10:07:13;;;;;;;39.22;18.02;;;;;;;0.72;64.18;101820.44;7691861;32;39911;-76
2022/01/13 10:11:39;;;;;;;50.80;22.25;;;;;;;0.83;63.96;101831.94;7685382;32;37921;-76
2022/01/13 10:20:30;;;;;;;44.58;20.52;;;;;;;1.24;63.85;101838.41;7709122;32;39022;-74
2022/01/13 10:24:48;;;;;;;46.28;20.08;;;;;;;1.84;62.02;101829.38;7708969;32;39549;-73
2022/01/13 10:29:07;;;;;;;42.83;21.00;;;;;;;0.81;65.37;101828.56;7708110;32;38009;-76
2022/01/13 10:33:25;;;;;;;42.47;19.87;;;;;;;0.92;65.92;101820.25;7688684;32;38054;-74
2022/01/13 10:37:48;;;;;;;45.25;20.37;;;;;;;1.61;63.14;101823.78;7710581;32;38851;-74
2022/01/13 10:47:04;;;;;;;41.85;20.10;;;;;;;1.74;63.36;101809.00;7710684;32;38839;-75
2022/01/13 10:51:24;;;;;;;34.92;15.82;;;;;;;1.56;63.50;101790.31;7704683;32;226955;-75
2022/01/13 10:55:44;;;;;;;35.83;17.37;;;;;;;1.91;62.40;101799.13;7711685;32;40114;-76
2022/01/13 11:00:01;;;;;;;35.10;17.58;;;;;;;1.48;63.95;101793.81;7711571;32;40762;-74
2022/01/13 11:04:17;;;;;;;30.90;15.73;;;;;;;1.78;62.78;101778.94;7711337;32;38167;-74
2022/01/13 11:08:42;;;;;;;32.42;15.82;;;;;;;2.40;61.50;101772.25;7710727;32;37538;-74
2022/01/13 11:13:15;;;;;;;29.12;13.52;;;;;;;2.46;61.00;101771.56;7698943;32;40185;-73
2022/01/13 11:17:33;;;;;;;22.17;10.57;;;;;;;2.72;59.75;101770.53;7698725;32;39917;-74
2022/01/13 11:21:50;;;;;;;26.87;12.85;;;;;;;2.62;59.06;101766.19;7711263;32;40190;-74
2022/01/13 11:26:06;;;;;;;22.77;12.32;;;;;;;3.08;57.88;101756.63;7697765;32;37081;-75
2022/01/13 11:30:25;;;;;;;25.37;11.50;;;;;;;2.01;60.82;101757.59;7697536;32;39348;-75
2022/01/13 11:34:42;;;;;;;28.23;12.77;;;;;;;2.30;60.48;101742.00;7710753;32;40026;-74
2022/01/13 11:39:01;;;;;;;25.73;13.40;;;;;;;2.17;60.58;101746.00;7711082;32;37906;-75
2022/01/13 11:43:29;;;;;;;25.52;12.02;;;;;;;2.82;58.56;101745.06;7711118;32;37179;-74
2022/01/13 11:47:46;;;;;;;25.20;12.18;;;;;;;2.91;57.45;101758.53;7710902;32;39941;-75
2022/01/13 11:52:13;;;;;;;26.70;12.45;;;;;;;2.10;58.50;101754.94;7710929;32;40705;-77
2022/01/13 11:56:30;;;;;;;21.08;11.77;;;;;;;2.53;58.42;101753.72;7709876;32;37890;-76
2022/01/13 12:00:48;;;;;;;25.08;12.15;;;;;;;2.24;59.57;101762.31;7710390;32;37976;-75
2022/01/13 12:05:22;;;;;;;26.33;12.05;;;;;;;2.22;60.06;101769.72;7710669;32;38257;-75
2022/01/13 12:09:38;;;;;;;;;;;;;;;2.39;59.61;101775.94;7710929;32;39685;-74
2022/01/13 12:13:54;;;;;;;21.87;11.75;;;;;;;2.52;58.73;101748.50;7710693;32;38362;-75
2022/01/13 12:18:10;;;;;;;23.08;11.93;;;;;;;2.55;59.22;101737.41;7710498;32;37201;-73
2022/01/13 12:22:47;;;;;;;22.95;13.27;;;;;;;1.87;60.63;101732.22;7710216;32;39432;-74
2022/01/13 12:27:04;;;;;;;24.48;12.48;;;;;;;2.48;59.34;101720.25;7709794;32;40870;-75
2022/01/13 12:31:27;;;;;;;25.67;14.05;;;;;;;1.74;61.77;101721.09;7709688;32;38435;-77
2022/01/13 12:35:44;;;;;;;29.33;12.10;;;;;;;2.31;61.06;101731.06;7709613;32;37568;-75
2022/01/13 12:40:08;;;;;;;28.23;13.25;;;;;;;2.67;59.55;101719.03;7709730;32;39322;-75
2022/01/13 12:48:59;;;;;;;30.30;14.68;;;;;;;2.69;59.42;101706.22;7709432;32;38069;-75
2022/01/13 12:53:25;;;;;;;25.37;12.63;;;;;;;2.83;58.94;101713.59;7709544;32;37299;-75
2022/01/13 12:57:47;;;;;;;29.67;14.77;;;;;;;2.76;59.58;101697.28;7696392;32;39147;-76
2022/01/13 13:02:03;;;;;;;28.12;13.80;;;;;;;2.15;62.53;101694.22;7709391;32;39891;-74
2022/01/13 13:06:20;;;;;;;32.50;15.85;;;;;;;2.61;60.68;101667.53;7709061;32;38041;-76
2022/01/13 13:10:36;;;;;;;35.90;15.50;;;;;;;2.34;61.64;101659.88;7711673;32;37190;-75
2022/01/13 13:19:27;;;;;;;34.65;16.98;;;;;;;2.43;61.10;101672.28;7712783;32;39969;-74
2022/01/13 13:23:44;;;;;;;40.58;16.65;;;;;;;2.41;61.85;101675.16;7712743;32;38003;-74
2022/01/13 13:28:38;;;;;;;37.33;16.35;;;;;;;2.08;63.77;101676.22;7712530;32;37240;-74
2022/01/13 13:32:54;;;;;;;37.47;16.15;;;;;;;1.98;63.60;101689.84;7712481;32;39584;-74
2022/01/13 13:37:12;;;;;;;33.60;17.92;;;;;;;2.34;62.23;101687.63;7712475;32;40859;-75
2022/01/13 13:41:36;;;;;;;35.72;17.85;;;;;;;2.46;62.01;101690.81;7712447;32;38755;-75
2022/01/13 13:46:03;;;;;;;34.15;17.83;;;;;;;2.66;61.67;101687.72;7712424;32;37160;-73
2022/01/13 13:50:19;;;;;;;33.42;17.05;;;;;;;1.81;63.59;101681.81;7712332;32;39437;-74
2022/01/13 13:54:37;;;;;;;32.42;15.95;;;;;;;2.04;64.57;101681.94;7712298;32;39909;-74
2022/01/13 13:58:54;;;;;;;34.03;16.75;;;;;;;2.85;61.12;101673.84;7711972;32;38536;-75
2022/01/13 14:03:12;;;;;;;30.20;16.58;;;;;;;2.60;61.28;101676.66;7711882;32;38005;-74
2022/01/13 14:07:33;;;;;;;40.53;17.92;;;;;;;3.35;59.20;101671.75;7711924;32;38274;-75
2022/01/13 14:11:49;;;;;;;34.10;16.55;;;;;;;3.54;58.52;101656.97;7711788;32;40032;-74
2022/01/13 14:16:05;;;;;;;32.88;15.82;;;;;;;3.62;58.53;101648.78;7711664;32;37955;-74
2022/01/13 14:20:27;;;;;;;29.50;15.20;;;;;;;2.91;60.44;101651.59;7710868;32;38120;-74
2022/01/13 14:24:42;;;;;;;37.97;17.12;;;;;;;3.49;59.01;101648.56;7712086;32;37573;-76
2022/01/13 14:28:59;;;;;;;34.03;16.70;;;;;;;2.70;61.33;101649.50;7711628;32;40775;-76
2022/01/13 14:33:25;;;;;;;33.78;15.93;;;;;;;2.56;62.14;101642.16;7711440;32;37939;-74
2022/01/13 14:37:54;;;;;;;28.17;14.90;;;;;;;3.03;60.53;101635.88;7711576;32;37304;-75
2022/01/13 14:42:12;;;;;;;33.58;15.35;;;;;;;2.43;62.31;101622.00;7699006;32;39365;-75
2022/01/13 14:46:32;;;;;;;27.37;14.48;;;;;;;2.79;60.89;101616.13;7692887;32;40711;-74
2022/01/13 14:50:49;;;;;;;26.85;15.10;;;;;;;2.23;62.98;101616.16;7711268;32;35811;-73
2022/01/13 14:55:05;;;;;;;31.10;15.45;;;;;;;2.32;62.90;101624.22;7711145;32;37337;-73
2022/01/13 14:59:21;;;;;;;25.77;13.27;;;;;;;2.51;62.60;101610.34;7711019;32;40126;-74
2022/01/13 15:03:38;;;;;;;33.40;17.30;;;;;;;2.54;62.25;101617.25;7711062;32;40783;-75
2022/01/13 15:07:54;;;;;;;32.80;16.58;;;;;;;1.86;65.46;101624.78;7710370;32;37876;-76
2022/01/13 15:12:10;;;;;;;30.65;15.57;;;;;;;2.37;63.53;101611.09;7711409;32;37172;-74
2022/01/13 15:16:27;;;;;;;31.80;16.75;;;;;;;2.40;63.98;101626.91;7710817;32;39409;-75
2022/01/13 15:20:44;;;;;;;35.03;18.08;;;;;;;2.31;63.64;101617.16;7710945;32;39976;-75
2022/01/13 15:25:00;;;;;;;32.45;16.60;;;;;;;2.38;63.42;101623.50;7710702;32;37618;-75
2022/01/13 15:29:16;;;;;;;34.92;16.67;;;;;;;2.02;64.72;101618.56;7710876;32;37924;-75
2022/01/13 15:33:32;;;;;;;36.65;16.75;;;;;;;2.71;62.44;101605.41;7710902;32;39013;-74
2022/01/13 15:37:48;;;;;;;35.60;16.25;;;;;;;2.52;63.76;101593.19;7696474;32;40480;-76
2022/01/13 15:42:05;;;;;;;30.75;14.85;;;;;;;2.20;63.45;101594.97;7710986;32;38756;-74
2022/01/13 15:46:21;;;;;;;29.42;14.15;;;;;;;2.73;62.17;101589.06;7710297;32;37177;-73
2022/01/13 15:50:38;;;;;;;25.77;14.45;;;;;;;2.84;61.02;101587.81;7710490;32;39261;-74
2022/01/13 15:54:54;;;;;;;31.27;15.63;;;;;;;2.37;63.29;101586.84;7710376;32;39587;-74
2022/01/13 15:59:10;;;;;;;31.15;15.02;;;;;;;2.34;63.13;101573.75;7709803;32;37703;-74
2022/01/13 16:03:26;;;;;;;36.20;16.40;;;;;;;2.73;61.72;101572.91;7710650;32;37675;-74
2022/01/13 16:07:43;;;;;;;34.53;16.77;;;;;;;2.46;62.37;101571.50;7709857;32;39782;-74
2022/01/13 16:11:59;;;;;;;28.62;14.10;;;;;;;2.55;62.51;101559.69;7696311;32;40736;-74
2022/01/13 16:16:15;;;;;;;33.05;15.43;;;;;;;2.40;63.93;101559.59;7709771;32;38345;-75
2022/01/13 16:20:31;;;;;;;31.42;16.02;;;;;;;2.15;64.18;101550.75;7709883;32;37309;-74
2022/01/13 16:24:47;;;;;;;26.33;15.05;;;;;;;2.34;63.74;101553.03;7709801;32;40050;-74
2022/01/13 16:29:04;;;;;;;31.02;15.85;;;;;;;2.84;62.28;101550.12;7709323;32;40027;-74
2022/01/13 16:33:20;;;;;;;29.67;15.27;;;;;;;2.60;62.85;101555.47;7709722;32;37940;-75
2022/01/13 16:37:40;;;;;;;27.87;13.88;;;;;;;2.66;62.81;101555.75;7709223;32;37245;-75
2022/01/13 16:42:01;;;;;;;28.95;14.57;;;;;;;3.04;62.05;101553.19;7709420;32;40225;-76
2022/01/13 16:46:17;;;;;;;26.25;14.77;;;;;;;2.32;64.08;101548.84;7711861;32;39963;-75
2022/01/13 16:50:34;;;;;;;34.55;14.80;;;;;;;2.66;63.05;101556.59;7712376;32;38841;-75
2022/01/13 16:54:52;;;;;;;31.12;14.18;;;;;;;2.57;63.39;101542.34;7712541;32;37997;-74
2022/01/13 16:59:09;;;;;;;27.27;15.27;;;;;;;3.01;61.43;101538.22;7712201;32;40311;-75
2022/01/13 17:03:25;;;;;;;27.20;14.40;;;;;;;2.46;62.57;101547.28;7712368;32;39928;-73
2022/01/13 17:07:42;;;;;;;30.08;14.43;;;;;;;2.41;63.44;101548.63;7712246;32;37937;-73
2022/01/13 17:11:58;;;;;;;30.08;14.10;;;;;;;2.07;64.21;101540.88;7712394;32;37778;-75
2022/01/13 17:16:14;;;;;;;29.25;14.32;;;;;;;2.35;62.90;101538.56;7712255;32;39856;-73
2022/01/13 17:20:31;;;;;;;30.77;15.02;;;;;;;2.77;61.43;101541.91;7711925;32;40886;-74
2022/01/13 17:24:47;;;;;;;28.62;14.70;;;;;;;2.61;61.28;101540.97;7712418;32;37958;-72
2022/01/13 17:29:03;;;;;;;33.42;15.48;;;;;;;2.06;62.71;101541.87;7712053;32;37207;-75
2022/01/13 17:33:19;;;;;;;32.10;15.70;;;;;;;2.58;61.11;101552.09;7712065;32;39240;-74
2022/01/13 17:37:37;;;;;;;30.33;15.10;;;;;;;2.29;61.25;101559.97;7711920;32;40028;-75
2022/01/13 17:41:54;;;;;;;31.42;14.38;;;;;;;2.21;61.46;101561.69;7712182;32;37021;-74
2022/01/13 17:46:10;;;;;;;29.05;14.85;;;;;;;2.79;59.64;101554.19;7711839;32;36942;-75
2022/01/13 17:50:26;;;;;;;29.83;15.43;;;;;;;2.55;59.66;101568.63;7711982;32;40176;-74
2022/01/13 17:54:42;;;;;;;26.42;13.88;;;;;;;2.69;59.15;101561.66;7711935;32;40890;-74
2022/01/13 17:58:59;;;;;;;33.25;15.13;;;;;;;3.00;58.15;101558.94;7711891;32;37955;-76
2022/01/13 18:03:15;;;;;;;30.27;14.80;;;;;;;2.65;58.54;101564.88;7711673;32;37977;-74
2022/01/13 18:07:30;;;;;;;28.80;14.82;;;;;;;2.67;59.13;101574.44;7711658;32;39340;-74
2022/01/13 18:11:47;;;;;;;29.30;15.30;;;;;;;2.94;58.64;101559.63;7698563;32;40577;-74
2022/01/13 18:16:03;;;;;;;29.00;15.35;;;;;;;3.30;57.62;101550.12;7711105;32;38020;-75
2022/01/13 18:20:19;;;;;;;32.58;16.40;;;;;;;3.46;56.71;101563.47;7711736;32;37638;-73
2022/01/13 18:24:35;;;;;;;29.37;15.05;;;;;;;3.14;57.61;101556.47;7711508;32;40085;-74
2022/01/13 18:28:51;;;;;;;32.88;16.27;;;;;;;2.69;58.92;101556.25;7711402;32;40737;-75
2022/01/13 18:33:08;;;;;;;32.70;15.13;;;;;;;2.70;59.77;101540.94;7697573;32;37886;-75
2022/01/13 18:37:26;;;;;;;29.87;14.60;;;;;;;3.20;58.24;101528.81;7711285;32;36248;-73
2022/01/13 18:41:44;;;;;;;27.08;14.05;;;;;;;3.42;57.15;101521.72;7711395;32;39947;-73
2022/01/13 18:46:06;;;;;;;31.73;15.18;;;;;;;3.30;57.34;101510.53;7711165;32;39895;-76
2022/01/13 18:50:22;;;;;;;31.65;14.90;;;;;;;3.33;59.05;101503.94;7711214;32;38788;-74
2022/01/13 18:54:39;;;;;;;26.30;13.65;;;;;;;2.71;59.50;101488.72;7711254;32;38061;-75
2022/01/13 18:58:55;;;;;;;32.17;15.57;;;;;;;2.89;57.97;101480.38;7710974;32;40142;-73
2022/01/13 19:03:11;;;;;;;31.80;15.88;;;;;;;2.59;58.67;101473.00;7711383;32;39906;-73
2022/01/13 19:07:27;;;;;;;30.33;13.82;;;;;;;3.09;57.39;101475.34;7709755;32;37957;-73
2022/01/13 19:11:43;;;;;;;33.17;15.60;;;;;;;3.06;56.96;101470.31;7710726;32;37219;-73
2022/01/13 19:15:59;;;;;;;29.98;13.65;;;;;;;2.53;58.70;101470.16;7710353;32;39272;-74
2022/01/13 19:20:16;;;;;;;25.98;14.63;;;;;;;3.13;56.69;101460.47;7710766;32;39661;-73
2022/01/13 19:24:32;;;;;;;28.02;13.23;;;;;;;2.77;57.67;101466.47;7710623;32;37836;-74
2022/01/13 19:28:48;;;;;;;28.95;14.35;;;;;;;3.28;55.94;101452.44;7709915;32;38021;-75
2022/01/13 19:33:09;;;;;;;30.25;14.05;;;;;;;3.00;56.90;101450.28;7710676;32;39354;-74
2022/01/13 19:37:27;;;;;;;27.03;13.07;;;;;;;3.08;56.47;101446.72;7709293;32;40713;-73
2022/01/13 19:41:45;;;;;;;27.98;13.85;;;;;;;3.20;56.61;101432.59;7710152;32;38620;-72
2022/01/13 19:46:01;;;;;;;27.08;14.80;;;;;;;3.10;56.93;101433.87;7710137;32;37352;-74
2022/01/13 19:50:23;;;;;;;26.48;13.32;;;;;;;3.06;56.59;101430.72;7710139;32;39476;-74
2022/01/13 19:54:40;;;;;;;24.30;12.57;;;;;;;3.11;56.01;101420.22;7710611;32;40852;-76
2022/01/13 19:58:59;;;;;;;32.03;14.65;;;;;;;2.61;56.71;101430.56;7709544;32;37641;-75
2022/01/13 20:03:19;;;;;;;30.00;13.45;;;;;;;2.55;56.36;101417.84;7710257;32;36888;-74
2022/01/13 20:07:37;;;;;;;26.55;13.38;;;;;;;2.62;57.00;101410.72;7709962;32;38986;-74
2022/01/13 20:12:10;;;;;;;29.70;14.63;;;;;;;2.92;56.35;101408.09;7710031;32;40262;-74
2022/01/13 20:16:26;;;;;;;28.67;13.75;;;;;;;2.99;55.39;101402.84;7709194;32;38034;-75
2022/01/13 20:20:45;;;;;;;24.45;13.18;;;;;;;3.22;55.17;101401.94;7709053;32;38006;-74